sensor_id;sensor_type;location;lat;lon;timestamp;temperature;humidity
23869;DHT22;12115;47.128;15.422;2022-09-02T00:01:29;16.30;99.90
23869;DHT22;12115;47.128;15.422;2022-09-02T00:04:02;16.30;99.90
23869;DHT22;12115;47.128;15.422;2022-09-02T00:06:31;16.30;99.90
23869;DHT22;12115;47.128;15.422;2022-09-02T00:08:59;16.20;99.90
23869;DHT22;12115;47.128;15.422;2022-09-02T00:11:28;16.20;99.90
23869;DHT22;12115;47.128;15.422;2022-09-02T00:13:57;16.20;99.90
23869;DHT22;12115;47.128;15.422;2022-09-02T00:16:24;16.20;99.90
23869;DHT22;12115;47.128;15.422;2022-09-02T00:18:52;16.20;99.90
23869;DHT22;12115;47.128;15.422;2022-09-02T00:21:20;16.20;99.90
23869;DHT22;12115;47.128;15.422;2022-09-02T00:23:47;16.20;99.90
23869;DHT22;12115;47.128;15.422;2022-09-02T00:26:15;16.20;99.90
23869;DHT22;12115;47.128;15.422;2022-09-02T00:28:42;16.20;99.90
23869;DHT22;12115;47.128;15.422;2022-09-02T00:31:14;16.20;99.90
23869;DHT22;12115;47.128;15.422;2022-09-02T00:33:43;16.20;99.90
23869;DHT22;12115;47.128;15.422;2022-09-02T00:36:10;16.20;99.90
23869;DHT22;12115;47.128;15.422;2022-09-02T00:38:37;16.10;99.90
23869;DHT22;12115;47.128;15.422;2022-09-02T00:41:08;16.10;99.90
23869;DHT22;12115;47.128;15.422;2022-09-02T00:43:53;16.10;99.90
23869;DHT22;12115;47.128;15.422;2022-09-02T00:46:22;16.10;99.90
23869;DHT22;12115;47.128;15.422;2022-09-02T00:49:12;16.10;99.90
23869;DHT22;12115;47.128;15.422;2022-09-02T00:54:16;16.00;99.90
23869;DHT22;12115;47.128;15.422;2022-09-02T00:56:46;15.90;99.90
23869;DHT22;12115;47.128;15.422;2022-09-02T01:00:10;15.90;99.90
23869;DHT22;12115;47.128;15.422;2022-09-02T01:02:09;15.90;99.90
23869;DHT22;12115;47.128;15.422;2022-09-02T01:04:37;16.00;99.90
23869;DHT22;12115;47.128;15.422;2022-09-02T01:07:04;16.00;99.90
23869;DHT22;12115;47.128;15.422;2022-09-02T01:09:32;15.90;99.90
23869;DHT22;12115;47.128;15.422;2022-09-02T01:11:59;15.90;99.90
23869;DHT22;12115;47.128;15.422;2022-09-02T01:14:29;15.90;99.90
23869;DHT22;12115;47.128;15.422;2022-09-02T01:16:58;15.90;99.90
23869;DHT22;12115;47.128;15.422;2022-09-02T01:19:32;15.90;99.90
23869;DHT22;12115;47.128;15.422;2022-09-02T01:22:00;15.90;99.90
23869;DHT22;12115;47.128;15.422;2022-09-02T01:24:30;15.90;99.90
23869;DHT22;12115;47.128;15.422;2022-09-02T01:26:58;15.80;99.90
23869;DHT22;12115;47.128;15.422;2022-09-02T01:29:27;15.80;99.90
23869;DHT22;12115;47.128;15.422;2022-09-02T01:31:54;15.80;99.90
23869;DHT22;12115;47.128;15.422;2022-09-02T01:34:22;15.80;99.90
23869;DHT22;12115;47.128;15.422;2022-09-02T01:36:49;15.80;99.90
23869;DHT22;12115;47.128;15.422;2022-09-02T01:39:17;15.80;99.90
23869;DHT22;12115;47.128;15.422;2022-09-02T01:41:44;15.80;99.90
23869;DHT22;12115;47.128;15.422;2022-09-02T01:44:11;15.70;99.90
23869;DHT22;12115;47.128;15.422;2022-09-02T01:46:39;15.70;99.90
23869;DHT22;12115;47.128;15.422;2022-09-02T01:49:06;15.80;99.90
23869;DHT22;12115;47.128;15.422;2022-09-02T01:51:35;15.80;99.90
23869;DHT22;12115;47.128;15.422;2022-09-02T01:54:03;15.70;99.90
23869;DHT22;12115;47.128;15.422;2022-09-02T01:56:30;15.70;99.90
23869;DHT22;12115;47.128;15.422;2022-09-02T01:58:59;15.70;99.90
23869;DHT22;12115;47.128;15.422;2022-09-02T02:01:28;15.60;99.90
23869;DHT22;12115;47.128;15.422;2022-09-02T02:03:55;15.60;99.90
23869;DHT22;12115;47.128;15.422;2022-09-02T02:06:23;15.60;99.90
23869;DHT22;12115;47.128;15.422;2022-09-02T02:08:52;15.60;99.90
23869;DHT22;12115;47.128;15.422;2022-09-02T02:11:23;15.60;99.90
23869;DHT22;12115;47.128;15.422;2022-09-02T02:13:58;15.60;99.90
23869;DHT22;12115;47.128;15.422;2022-09-02T02:16:25;15.60;99.90
23869;DHT22;12115;47.128;15.422;2022-09-02T02:18:52;15.60;99.90
23869;DHT22;12115;47.128;15.422;2022-09-02T02:21:19;15.60;99.90
23869;DHT22;12115;47.128;15.422;2022-09-02T02:23:49;15.60;99.90
23869;DHT22;12115;47.128;15.422;2022-09-02T02:26:16;15.60;99.90
23869;DHT22;12115;47.128;15.422;2022-09-02T02:28:46;15.50;99.90
23869;DHT22;12115;47.128;15.422;2022-09-02T02:31:14;15.50;99.90
23869;DHT22;12115;47.128;15.422;2022-09-02T02:33:41;15.50;99.90
23869;DHT22;12115;47.128;15.422;2022-09-02T02:36:08;15.60;99.90
23869;DHT22;12115;47.128;15.422;2022-09-02T02:38:37;15.50;99.90
23869;DHT22;12115;47.128;15.422;2022-09-02T02:41:06;15.40;99.90
23869;DHT22;12115;47.128;15.422;2022-09-02T02:43:34;15.40;99.90
23869;DHT22;12115;47.128;15.422;2022-09-02T02:46:03;15.50;99.90
23869;DHT22;12115;47.128;15.422;2022-09-02T02:48:30;15.50;99.90
23869;DHT22;12115;47.128;15.422;2022-09-02T02:50:57;15.50;99.90
23869;DHT22;12115;47.128;15.422;2022-09-02T02:53:26;15.40;99.90
23869;DHT22;12115;47.128;15.422;2022-09-02T02:55:56;15.40;99.90
23869;DHT22;12115;47.128;15.422;2022-09-02T02:58:23;15.40;99.90
23869;DHT22;12115;47.128;15.422;2022-09-02T03:00:50;15.50;99.90
23869;DHT22;12115;47.128;15.422;2022-09-02T03:03:19;15.50;99.90
23869;DHT22;12115;47.128;15.422;2022-09-02T03:05:52;15.50;99.90
23869;DHT22;12115;47.128;15.422;2022-09-02T03:08:19;15.40;99.90
23869;DHT22;12115;47.128;15.422;2022-09-02T03:10:49;15.40;99.90
23869;DHT22;12115;47.128;15.422;2022-09-02T03:13:23;15.40;99.90
23869;DHT22;12115;47.128;15.422;2022-09-02T03:15:53;15.40;99.90
23869;DHT22;12115;47.128;15.422;2022-09-02T03:18:21;15.30;99.90
23869;DHT22;12115;47.128;15.422;2022-09-02T03:20:49;15.30;99.90
23869;DHT22;12115;47.128;15.422;2022-09-02T03:23:16;15.30;99.90
23869;DHT22;12115;47.128;15.422;2022-09-02T03:25:47;15.20;99.90
23869;DHT22;12115;47.128;15.422;2022-09-02T03:28:30;15.20;99.90
23869;DHT22;12115;47.128;15.422;2022-09-02T03:31:00;15.30;99.90
23869;DHT22;12115;47.128;15.422;2022-09-02T03:33:27;15.30;99.90
23869;DHT22;12115;47.128;15.422;2022-09-02T03:35:55;15.20;99.90
23869;DHT22;12115;47.128;15.422;2022-09-02T03:38:24;15.20;99.90
23869;DHT22;12115;47.128;15.422;2022-09-02T03:40:51;15.20;99.90
23869;DHT22;12115;47.128;15.422;2022-09-02T03:43:18;15.20;99.90
23869;DHT22;12115;47.128;15.422;2022-09-02T03:45:47;15.20;99.90
23869;DHT22;12115;47.128;15.422;2022-09-02T03:48:14;15.20;99.90
23869;DHT22;12115;47.128;15.422;2022-09-02T03:50:44;15.20;99.90
23869;DHT22;12115;47.128;15.422;2022-09-02T03:53:17;15.10;99.90
23869;DHT22;12115;47.128;15.422;2022-09-02T03:55:50;15.10;99.90
23869;DHT22;12115;47.128;15.422;2022-09-02T03:58:20;15.10;99.90
23869;DHT22;12115;47.128;15.422;2022-09-02T04:00:52;15.10;99.90
23869;DHT22;12115;47.128;15.422;2022-09-02T04:03:22;15.00;99.90
23869;DHT22;12115;47.128;15.422;2022-09-02T04:05:50;15.00;99.90
23869;DHT22;12115;47.128;15.422;2022-09-02T04:08:20;15.00;99.90
23869;DHT22;12115;47.128;15.422;2022-09-02T04:10:48;15.00;99.90
23869;DHT22;12115;47.128;15.422;2022-09-02T04:13:16;14.90;99.90
23869;DHT22;12115;47.128;15.422;2022-09-02T04:15:44;14.90;99.90
23869;DHT22;12115;47.128;15.422;2022-09-02T04:18:16;14.90;99.90
23869;DHT22;12115;47.128;15.422;2022-09-02T04:20:44;14.80;99.90
23869;DHT22;12115;47.128;15.422;2022-09-02T04:23:11;14.80;99.90
23869;DHT22;12115;47.128;15.422;2022-09-02T04:25:42;14.80;99.90
23869;DHT22;12115;47.128;15.422;2022-09-02T04:28:11;14.70;99.90
23869;DHT22;12115;47.128;15.422;2022-09-02T04:30:40;14.70;99.90
23869;DHT22;12115;47.128;15.422;2022-09-02T04:33:09;14.70;99.90
23869;DHT22;12115;47.128;15.422;2022-09-02T04:35:41;14.70;99.90
23869;DHT22;12115;47.128;15.422;2022-09-02T04:38:09;14.70;99.90
23869;DHT22;12115;47.128;15.422;2022-09-02T04:40:45;14.70;99.90
23869;DHT22;12115;47.128;15.422;2022-09-02T04:43:13;14.70;99.90
23869;DHT22;12115;47.128;15.422;2022-09-02T04:45:44;14.60;99.90
23869;DHT22;12115;47.128;15.422;2022-09-02T04:48:14;14.50;99.90
23869;DHT22;12115;47.128;15.422;2022-09-02T04:50:41;14.50;99.90
23869;DHT22;12115;47.128;15.422;2022-09-02T04:53:10;14.50;99.90
23869;DHT22;12115;47.128;15.422;2022-09-02T04:55:40;14.40;99.90
23869;DHT22;12115;47.128;15.422;2022-09-02T04:58:10;14.30;99.90
23869;DHT22;12115;47.128;15.422;2022-09-02T05:00:38;14.30;99.90
23869;DHT22;12115;47.128;15.422;2022-09-02T05:03:08;14.30;99.90
23869;DHT22;12115;47.128;15.422;2022-09-02T05:05:39;14.40;99.90
23869;DHT22;12115;47.128;15.422;2022-09-02T05:08:08;14.40;99.90
23869;DHT22;12115;47.128;15.422;2022-09-02T05:10:39;14.40;99.90
23869;DHT22;12115;47.128;15.422;2022-09-02T05:13:06;14.30;99.90
23869;DHT22;12115;47.128;15.422;2022-09-02T05:15:38;14.30;99.90
23869;DHT22;12115;47.128;15.422;2022-09-02T05:18:07;14.40;99.90
23869;DHT22;12115;47.128;15.422;2022-09-02T05:20:36;14.40;99.90
23869;DHT22;12115;47.128;15.422;2022-09-02T05:23:05;14.40;99.90
23869;DHT22;12115;47.128;15.422;2022-09-02T05:25:32;14.40;99.90
23869;DHT22;12115;47.128;15.422;2022-09-02T05:27:59;14.40;99.90
23869;DHT22;12115;47.128;15.422;2022-09-02T05:30:26;14.40;99.90
23869;DHT22;12115;47.128;15.422;2022-09-02T05:32:54;14.40;99.90
23869;DHT22;12115;47.128;15.422;2022-09-02T05:35:22;14.40;99.90
23869;DHT22;12115;47.128;15.422;2022-09-02T05:37:50;14.50;99.90
23869;DHT22;12115;47.128;15.422;2022-09-02T05:40:23;14.50;99.90
23869;DHT22;12115;47.128;15.422;2022-09-02T05:42:55;14.50;99.90
23869;DHT22;12115;47.128;15.422;2022-09-02T05:45:22;14.50;99.90
23869;DHT22;12115;47.128;15.422;2022-09-02T05:47:50;14.60;99.90
23869;DHT22;12115;47.128;15.422;2022-09-02T05:50:17;14.60;99.90
23869;DHT22;12115;47.128;15.422;2022-09-02T05:52:49;14.60;99.90
23869;DHT22;12115;47.128;15.422;2022-09-02T05:55:18;14.70;99.90
23869;DHT22;12115;47.128;15.422;2022-09-02T05:57:45;14.70;99.90
23869;DHT22;12115;47.128;15.422;2022-09-02T06:00:13;14.70;99.90
23869;DHT22;12115;47.128;15.422;2022-09-02T06:02:51;14.80;99.90
23869;DHT22;12115;47.128;15.422;2022-09-02T06:05:35;14.90;99.90
23869;DHT22;12115;47.128;15.422;2022-09-02T06:08:14;14.90;99.90
23869;DHT22;12115;47.128;15.422;2022-09-02T06:10:41;14.90;99.90
23869;DHT22;12115;47.128;15.422;2022-09-02T06:13:12;14.90;99.90
23869;DHT22;12115;47.128;15.422;2022-09-02T06:15:42;14.90;99.90
23869;DHT22;12115;47.128;15.422;2022-09-02T06:18:11;14.90;99.90
23869;DHT22;12115;47.128;15.422;2022-09-02T06:20:42;15.00;99.90
23869;DHT22;12115;47.128;15.422;2022-09-02T06:23:09;15.00;99.90
23869;DHT22;12115;47.128;15.422;2022-09-02T06:25:41;15.00;99.90
23869;DHT22;12115;47.128;15.422;2022-09-02T06:28:09;15.10;99.90
23869;DHT22;12115;47.128;15.422;2022-09-02T06:30:42;15.10;99.90
23869;DHT22;12115;47.128;15.422;2022-09-02T06:33:11;15.20;99.90
23869;DHT22;12115;47.128;15.422;2022-09-02T06:35:43;15.30;99.90
23869;DHT22;12115;47.128;15.422;2022-09-02T06:38:13;15.40;99.90
23869;DHT22;12115;47.128;15.422;2022-09-02T06:40:54;15.40;99.90
23869;DHT22;12115;47.128;15.422;2022-09-02T06:43:33;15.50;99.90
23869;DHT22;12115;47.128;15.422;2022-09-02T06:46:24;15.50;99.90
23869;DHT22;12115;47.128;15.422;2022-09-02T06:48:54;15.60;99.90
23869;DHT22;12115;47.128;15.422;2022-09-02T06:51:26;15.60;99.90
23869;DHT22;12115;47.128;15.422;2022-09-02T06:53:55;15.70;99.90
23869;DHT22;12115;47.128;15.422;2022-09-02T06:56:26;15.80;99.90
23869;DHT22;12115;47.128;15.422;2022-09-02T06:58:54;15.80;99.90
23869;DHT22;12115;47.128;15.422;2022-09-02T07:01:35;15.90;99.90
23869;DHT22;12115;47.128;15.422;2022-09-02T07:04:03;16.00;99.90
23869;DHT22;12115;47.128;15.422;2022-09-02T07:06:53;16.00;99.90
23869;DHT22;12115;47.128;15.422;2022-09-02T07:09:27;16.00;99.90
23869;DHT22;12115;47.128;15.422;2022-09-02T07:12:02;16.00;99.90
23869;DHT22;12115;47.128;15.422;2022-09-02T07:14:39;16.10;99.90
23869;DHT22;12115;47.128;15.422;2022-09-02T07:17:08;16.30;99.90
23869;DHT22;12115;47.128;15.422;2022-09-02T07:19:36;16.30;99.90
23869;DHT22;12115;47.128;15.422;2022-09-02T07:22:05;16.40;99.90
23869;DHT22;12115;47.128;15.422;2022-09-02T07:24:37;16.40;99.90
23869;DHT22;12115;47.128;15.422;2022-09-02T07:27:06;16.50;99.90
23869;DHT22;12115;47.128;15.422;2022-09-02T07:29:33;16.50;99.90
23869;DHT22;12115;47.128;15.422;2022-09-02T07:32:01;16.50;99.90
23869;DHT22;12115;47.128;15.422;2022-09-02T07:34:28;16.60;99.90
23869;DHT22;12115;47.128;15.422;2022-09-02T07:36:56;16.70;99.90
23869;DHT22;12115;47.128;15.422;2022-09-02T07:39:31;16.80;99.90
23869;DHT22;12115;47.128;15.422;2022-09-02T07:41:58;16.90;99.90
23869;DHT22;12115;47.128;15.422;2022-09-02T07:44:27;17.00;99.90
23869;DHT22;12115;47.128;15.422;2022-09-02T07:46:54;17.10;99.90
23869;DHT22;12115;47.128;15.422;2022-09-02T07:49:22;17.10;99.90
23869;DHT22;12115;47.128;15.422;2022-09-02T07:51:51;17.30;99.90
23869;DHT22;12115;47.128;15.422;2022-09-02T07:54:21;17.30;99.90
23869;DHT22;12115;47.128;15.422;2022-09-02T07:56:51;17.40;99.90
23869;DHT22;12115;47.128;15.422;2022-09-02T07:59:19;17.50;99.90
23869;DHT22;12115;47.128;15.422;2022-09-02T08:01:51;17.50;99.90
23869;DHT22;12115;47.128;15.422;2022-09-02T08:04:22;17.70;99.90
23869;DHT22;12115;47.128;15.422;2022-09-02T08:06:52;17.90;99.90
23869;DHT22;12115;47.128;15.422;2022-09-02T08:09:20;18.00;99.90
23869;DHT22;12115;47.128;15.422;2022-09-02T08:11:49;18.00;99.90
23869;DHT22;12115;47.128;15.422;2022-09-02T08:14:20;18.10;99.90
23869;DHT22;12115;47.128;15.422;2022-09-02T08:16:47;18.20;99.90
23869;DHT22;12115;47.128;15.422;2022-09-02T08:19:15;18.20;99.90
23869;DHT22;12115;47.128;15.422;2022-09-02T08:21:42;18.10;99.90
23869;DHT22;12115;47.128;15.422;2022-09-02T08:24:09;18.20;99.90
23869;DHT22;12115;47.128;15.422;2022-09-02T08:26:36;18.40;99.90
23869;DHT22;12115;47.128;15.422;2022-09-02T08:29:05;18.40;99.90
23869;DHT22;12115;47.128;15.422;2022-09-02T08:31:33;18.50;99.90
23869;DHT22;12115;47.128;15.422;2022-09-02T08:34:00;18.60;99.90
23869;DHT22;12115;47.128;15.422;2022-09-02T08:36:27;18.60;99.90
23869;DHT22;12115;47.128;15.422;2022-09-02T08:38:54;18.70;99.90
23869;DHT22;12115;47.128;15.422;2022-09-02T08:41:23;19.00;99.90
23869;DHT22;12115;47.128;15.422;2022-09-02T08:43:52;19.10;99.90
23869;DHT22;12115;47.128;15.422;2022-09-02T08:46:21;19.20;99.90
23869;DHT22;12115;47.128;15.422;2022-09-02T08:49:01;19.40;99.90
23869;DHT22;12115;47.128;15.422;2022-09-02T08:51:36;19.40;99.90
23869;DHT22;12115;47.128;15.422;2022-09-02T08:54:25;19.50;99.90
23869;DHT22;12115;47.128;15.422;2022-09-02T08:56:54;19.60;99.90
23869;DHT22;12115;47.128;15.422;2022-09-02T08:59:23;19.70;99.90
23869;DHT22;12115;47.128;15.422;2022-09-02T09:02:20;19.80;99.90
23869;DHT22;12115;47.128;15.422;2022-09-02T09:05:12;19.70;99.40
23869;DHT22;12115;47.128;15.422;2022-09-02T09:19:42;20.30;97.20
23869;DHT22;12115;47.128;15.422;2022-09-02T09:22:15;20.10;96.10
23869;DHT22;12115;47.128;15.422;2022-09-02T09:24:48;20.10;97.30
23869;DHT22;12115;47.128;15.422;2022-09-02T09:27:20;20.30;97.70
23869;DHT22;12115;47.128;15.422;2022-09-02T09:29:49;20.50;98.20
23869;DHT22;12115;47.128;15.422;2022-09-02T09:35:17;20.90;96.90
23869;DHT22;12115;47.128;15.422;2022-09-02T09:37:50;20.90;97.00
23869;DHT22;12115;47.128;15.422;2022-09-02T09:42:54;20.90;94.70
23869;DHT22;12115;47.128;15.422;2022-09-02T09:45:42;21.00;95.10
23869;DHT22;12115;47.128;15.422;2022-09-02T09:50:44;21.30;94.10
23869;DHT22;12115;47.128;15.422;2022-09-02T09:53:22;21.20;92.10
23869;DHT22;12115;47.128;15.422;2022-09-02T09:56:02;21.40;92.20
23869;DHT22;12115;47.128;15.422;2022-09-02T10:01:28;21.30;91.40
23869;DHT22;12115;47.128;15.422;2022-09-02T10:03:57;21.30;90.50
23869;DHT22;12115;47.128;15.422;2022-09-02T10:06:37;21.60;92.80
23869;DHT22;12115;47.128;15.422;2022-09-02T10:14:31;22.40;91.30
23869;DHT22;12115;47.128;15.422;2022-09-02T10:17:05;22.30;89.80
23869;DHT22;12115;47.128;15.422;2022-09-02T10:19:51;21.90;89.30
23869;DHT22;12115;47.128;15.422;2022-09-02T10:33:53;21.70;89.10
23869;DHT22;12115;47.128;15.422;2022-09-02T10:36:42;22.20;91.40
23869;DHT22;12115;47.128;15.422;2022-09-02T10:39:22;22.20;90.00
23869;DHT22;12115;47.128;15.422;2022-09-02T10:41:57;22.10;88.00
23869;DHT22;12115;47.128;15.422;2022-09-02T10:44:30;21.90;86.20
23869;DHT22;12115;47.128;15.422;2022-09-02T10:47:24;22.00;87.20
23869;DHT22;12115;47.128;15.422;2022-09-02T10:50:01;22.10;87.80
23869;DHT22;12115;47.128;15.422;2022-09-02T10:52:37;22.00;86.10
23869;DHT22;12115;47.128;15.422;2022-09-02T10:58:03;21.80;88.80
23869;DHT22;12115;47.128;15.422;2022-09-02T11:00:36;22.30;90.60
23869;DHT22;12115;47.128;15.422;2022-09-02T11:03:34;22.30;90.20
23869;DHT22;12115;47.128;15.422;2022-09-02T11:06:25;22.70;91.30
23869;DHT22;12115;47.128;15.422;2022-09-02T11:11:52;22.70;85.70
23869;DHT22;12115;47.128;15.422;2022-09-02T11:17:22;22.20;86.30
23869;DHT22;12115;47.128;15.422;2022-09-02T11:19:54;22.40;85.10
23869;DHT22;12115;47.128;15.422;2022-09-02T11:22:28;22.70;87.40
23869;DHT22;12115;47.128;15.422;2022-09-02T11:25:10;22.90;86.20
23869;DHT22;12115;47.128;15.422;2022-09-02T11:27:45;22.60;82.50
23869;DHT22;12115;47.128;15.422;2022-09-02T11:30:22;22.60;88.60
23869;DHT22;12115;47.128;15.422;2022-09-02T11:33:01;22.40;83.20
23869;DHT22;12115;47.128;15.422;2022-09-02T11:35:35;22.50;83.20
23869;DHT22;12115;47.128;15.422;2022-09-02T11:41:02;22.70;84.30
23869;DHT22;12115;47.128;15.422;2022-09-02T11:54:30;23.50;82.50
23869;DHT22;12115;47.128;15.422;2022-09-02T11:57:02;23.70;83.50
23869;DHT22;12115;47.128;15.422;2022-09-02T12:02:48;23.70;84.50
23869;DHT22;12115;47.128;15.422;2022-09-02T12:08:55;24.00;83.60
23869;DHT22;12115;47.128;15.422;2022-09-02T12:11:07;24.10;82.70
23869;DHT22;12115;47.128;15.422;2022-09-02T12:13:40;23.70;80.90
23869;DHT22;12115;47.128;15.422;2022-09-02T12:21:25;23.30;81.20
23869;DHT22;12115;47.128;15.422;2022-09-02T12:31:52;23.40;78.80
23869;DHT22;12115;47.128;15.422;2022-09-02T12:36:59;23.30;78.50
23869;DHT22;12115;47.128;15.422;2022-09-02T12:50:05;23.00;81.40
23869;DHT22;12115;47.128;15.422;2022-09-02T12:55:14;23.10;86.60
23869;DHT22;12115;47.128;15.422;2022-09-02T12:57:44;23.30;82.00
23869;DHT22;12115;47.128;15.422;2022-09-02T13:00:25;23.30;87.00
23869;DHT22;12115;47.128;15.422;2022-09-02T13:03:16;23.30;87.90
23869;DHT22;12115;47.128;15.422;2022-09-02T13:17:21;22.70;83.40
23869;DHT22;12115;47.128;15.422;2022-09-02T13:20:12;22.60;83.10
23869;DHT22;12115;47.128;15.422;2022-09-02T13:26:05;22.50;80.30
23869;DHT22;12115;47.128;15.422;2022-09-02T13:31:33;22.70;84.00
23869;DHT22;12115;47.128;15.422;2022-09-02T13:34:11;22.90;86.50
23869;DHT22;12115;47.128;15.422;2022-09-02T13:36:44;23.00;82.20
23869;DHT22;12115;47.128;15.422;2022-09-02T13:39:18;23.00;83.70
23869;DHT22;12115;47.128;15.422;2022-09-02T13:41:51;23.10;81.50
23869;DHT22;12115;47.128;15.422;2022-09-02T13:44:29;23.40;84.30
23869;DHT22;12115;47.128;15.422;2022-09-02T13:47:17;23.50;82.10
23869;DHT22;12115;47.128;15.422;2022-09-02T13:49:51;23.70;80.40
23869;DHT22;12115;47.128;15.422;2022-09-02T13:52:22;23.60;80.50
23869;DHT22;12115;47.128;15.422;2022-09-02T13:55:14;23.50;80.50
23869;DHT22;12115;47.128;15.422;2022-09-02T13:57:57;23.00;78.70
23869;DHT22;12115;47.128;15.422;2022-09-02T14:03:11;23.00;80.10
23869;DHT22;12115;47.128;15.422;2022-09-02T14:05:52;23.00;80.60
23869;DHT22;12115;47.128;15.422;2022-09-02T14:08:28;23.20;80.20
23869;DHT22;12115;47.128;15.422;2022-09-02T14:11:06;23.40;81.70
23869;DHT22;12115;47.128;15.422;2022-09-02T14:13:45;23.40;77.70
23869;DHT22;12115;47.128;15.422;2022-09-02T14:16:32;23.20;77.10
23869;DHT22;12115;47.128;15.422;2022-09-02T14:19:21;23.20;80.20
23869;DHT22;12115;47.128;15.422;2022-09-02T14:21:59;23.30;82.10
23869;DHT22;12115;47.128;15.422;2022-09-02T14:24:38;23.40;79.10
23869;DHT22;12115;47.128;15.422;2022-09-02T14:27:24;23.60;81.60
23869;DHT22;12115;47.128;15.422;2022-09-02T14:30:09;23.70;80.10
23869;DHT22;12115;47.128;15.422;2022-09-02T14:32:45;23.80;78.70
23869;DHT22;12115;47.128;15.422;2022-09-02T14:37:56;23.50;76.70
23869;DHT22;12115;47.128;15.422;2022-09-02T14:40:39;23.30;78.30
23869;DHT22;12115;47.128;15.422;2022-09-02T14:43:14;22.90;78.10
23869;DHT22;12115;47.128;15.422;2022-09-02T14:45:45;22.80;79.40
23869;DHT22;12115;47.128;15.422;2022-09-02T14:48:24;22.80;77.70
23869;DHT22;12115;47.128;15.422;2022-09-02T14:51:01;22.80;77.40
23869;DHT22;12115;47.128;15.422;2022-09-02T14:53:30;22.70;76.40
23869;DHT22;12115;47.128;15.422;2022-09-02T14:55:58;22.80;78.30
23869;DHT22;12115;47.128;15.422;2022-09-02T14:58:26;22.90;81.40
23869;DHT22;12115;47.128;15.422;2022-09-02T15:00:57;22.90;78.50
23869;DHT22;12115;47.128;15.422;2022-09-02T15:03:25;22.90;80.90
23869;DHT22;12115;47.128;15.422;2022-09-02T15:05:52;22.90;79.70
23869;DHT22;12115;47.128;15.422;2022-09-02T15:08:19;23.00;79.30
23869;DHT22;12115;47.128;15.422;2022-09-02T15:10:47;23.00;79.60
23869;DHT22;12115;47.128;15.422;2022-09-02T15:15:51;22.70;81.40
23869;DHT22;12115;47.128;15.422;2022-09-02T15:18:18;22.70;85.00
23869;DHT22;12115;47.128;15.422;2022-09-02T15:20:45;22.70;84.00
23869;DHT22;12115;47.128;15.422;2022-09-02T15:23:13;22.60;80.40
23869;DHT22;12115;47.128;15.422;2022-09-02T15:25:41;22.50;80.50
23869;DHT22;12115;47.128;15.422;2022-09-02T15:28:08;22.50;82.80
23869;DHT22;12115;47.128;15.422;2022-09-02T15:30:36;22.40;84.00
23869;DHT22;12115;47.128;15.422;2022-09-02T15:33:05;22.40;85.50
23869;DHT22;12115;47.128;15.422;2022-09-02T15:35:33;22.40;84.50
23869;DHT22;12115;47.128;15.422;2022-09-02T15:38:01;22.50;83.00
23869;DHT22;12115;47.128;15.422;2022-09-02T15:40:30;22.50;83.40
23869;DHT22;12115;47.128;15.422;2022-09-02T15:42:58;22.60;82.80
23869;DHT22;12115;47.128;15.422;2022-09-02T15:45:30;22.50;82.90
23869;DHT22;12115;47.128;15.422;2022-09-02T15:47:58;22.50;81.30
23869;DHT22;12115;47.128;15.422;2022-09-02T15:50:31;22.40;80.40
23869;DHT22;12115;47.128;15.422;2022-09-02T15:53:02;22.30;81.10
23869;DHT22;12115;47.128;15.422;2022-09-02T15:55:35;22.20;81.60
23869;DHT22;12115;47.128;15.422;2022-09-02T15:58:03;22.30;82.30
23869;DHT22;12115;47.128;15.422;2022-09-02T16:00:30;22.30;83.00
23869;DHT22;12115;47.128;15.422;2022-09-02T16:02:58;22.30;82.10
23869;DHT22;12115;47.128;15.422;2022-09-02T16:05:26;22.40;84.10
23869;DHT22;12115;47.128;15.422;2022-09-02T16:07:53;22.40;85.90
23869;DHT22;12115;47.128;15.422;2022-09-02T16:10:21;22.40;86.80
23869;DHT22;12115;47.128;15.422;2022-09-02T16:12:48;22.40;84.00
23869;DHT22;12115;47.128;15.422;2022-09-02T16:15:15;22.20;83.90
23869;DHT22;12115;47.128;15.422;2022-09-02T16:17:42;22.20;84.20
23869;DHT22;12115;47.128;15.422;2022-09-02T16:20:09;22.10;84.40
23869;DHT22;12115;47.128;15.422;2022-09-02T16:22:37;21.90;83.80
23869;DHT22;12115;47.128;15.422;2022-09-02T16:25:04;21.70;84.20
23869;DHT22;12115;47.128;15.422;2022-09-02T16:27:31;21.70;84.90
23869;DHT22;12115;47.128;15.422;2022-09-02T16:30:17;21.70;85.60
23869;DHT22;12115;47.128;15.422;2022-09-02T16:32:44;21.60;87.50
23869;DHT22;12115;47.128;15.422;2022-09-02T16:35:13;21.50;86.40
23869;DHT22;12115;47.128;15.422;2022-09-02T16:37:40;21.50;86.90
23869;DHT22;12115;47.128;15.422;2022-09-02T16:40:09;21.40;87.60
23869;DHT22;12115;47.128;15.422;2022-09-02T16:42:36;21.50;87.80
23869;DHT22;12115;47.128;15.422;2022-09-02T16:45:04;21.40;89.30
23869;DHT22;12115;47.128;15.422;2022-09-02T16:47:31;21.30;88.60
23869;DHT22;12115;47.128;15.422;2022-09-02T16:49:58;21.30;88.50
23869;DHT22;12115;47.128;15.422;2022-09-02T16:52:26;21.20;89.90
23869;DHT22;12115;47.128;15.422;2022-09-02T16:54:53;21.10;90.00
23869;DHT22;12115;47.128;15.422;2022-09-02T16:57:20;21.20;90.10
23869;DHT22;12115;47.128;15.422;2022-09-02T16:59:47;21.10;90.50
23869;DHT22;12115;47.128;15.422;2022-09-02T17:02:15;21.00;90.20
23869;DHT22;12115;47.128;15.422;2022-09-02T17:04:42;21.00;92.40
23869;DHT22;12115;47.128;15.422;2022-09-02T17:07:09;20.80;94.30
23869;DHT22;12115;47.128;15.422;2022-09-02T17:09:36;20.80;95.40
23869;DHT22;12115;47.128;15.422;2022-09-02T17:12:03;20.60;95.80
23869;DHT22;12115;47.128;15.422;2022-09-02T17:14:30;20.60;96.50
23869;DHT22;12115;47.128;15.422;2022-09-02T17:16:57;20.60;96.60
23869;DHT22;12115;47.128;15.422;2022-09-02T17:19:24;20.60;95.50
23869;DHT22;12115;47.128;15.422;2022-09-02T17:21:57;20.60;95.40
23869;DHT22;12115;47.128;15.422;2022-09-02T17:24:25;20.60;95.70
23869;DHT22;12115;47.128;15.422;2022-09-02T17:26:54;20.50;95.60
23869;DHT22;12115;47.128;15.422;2022-09-02T17:29:24;20.40;95.70
23869;DHT22;12115;47.128;15.422;2022-09-02T17:32:11;20.10;97.70
23869;DHT22;12115;47.128;15.422;2022-09-02T17:34:38;19.90;97.30
23869;DHT22;12115;47.128;15.422;2022-09-02T17:37:05;19.90;98.40
23869;DHT22;12115;47.128;15.422;2022-09-02T17:39:32;19.90;97.80
23869;DHT22;12115;47.128;15.422;2022-09-02T17:42:01;19.80;97.60
23869;DHT22;12115;47.128;15.422;2022-09-02T17:44:34;19.90;97.30
23869;DHT22;12115;47.128;15.422;2022-09-02T17:49:35;19.70;97.70